createdAt,value
2018-03-18T00:01:13.918Z,36.13
2018-03-18T00:03:45.074Z,27.23
2018-03-18T00:06:12.647Z,34.00
2018-03-18T00:08:40.931Z,29.70
2018-03-18T00:11:08.265Z,33.10
2018-03-18T00:14:03.491Z,28.73
2018-03-18T00:16:30.919Z,29.67
2018-03-18T00:19:00.263Z,27.50
2018-03-18T00:21:29.569Z,27.77
2018-03-18T00:24:01.596Z,26.20
2018-03-18T00:26:34.886Z,28.10
2018-03-18T00:29:05.959Z,27.40
2018-03-18T00:31:36.749Z,30.08
2018-03-18T00:34:08.996Z,31.08
2018-03-18T00:36:42.933Z,28.57
2018-03-18T00:39:17.676Z,29.70
2018-03-18T00:41:50.284Z,26.50
2018-03-18T00:44:25.919Z,27.40
2018-03-18T00:46:53.247Z,29.30
2018-03-18T00:49:23.963Z,28.42
2018-03-18T00:52:00.415Z,27.50
2018-03-18T00:54:29.846Z,32.33
2018-03-18T00:56:59.013Z,27.20
2018-03-18T00:59:34.315Z,28.35
2018-03-18T01:02:01.537Z,31.52
2018-03-18T01:04:37.830Z,37.47
2018-03-18T01:07:12.009Z,32.97
2018-03-18T01:09:40.434Z,32.37
2018-03-18T01:12:09.696Z,33.30
2018-03-18T01:14:37.043Z,26.90
2018-03-18T01:17:06.515Z,31.12
2018-03-18T01:19:36.400Z,31.87
2018-03-18T01:22:03.810Z,31.10
2018-03-18T01:24:32.063Z,36.20
2018-03-18T01:26:59.391Z,31.23
2018-03-18T01:29:31.320Z,27.15
2018-03-18T01:32:01.455Z,25.57
2018-03-18T01:34:38.779Z,28.92
2018-03-18T01:37:08.011Z,28.12
2018-03-18T01:39:37.915Z,30.33
2018-03-18T01:42:12.320Z,30.60
2018-03-18T01:44:41.468Z,26.17
2018-03-18T01:47:09.473Z,33.13
2018-03-18T01:49:46.455Z,29.00
2018-03-18T01:52:25.023Z,30.77
2018-03-18T01:54:55.215Z,29.37
2018-03-18T01:57:30.983Z,36.20
2018-03-18T01:59:58.940Z,27.50
2018-03-18T02:02:27.071Z,30.90
2018-03-18T02:04:55.478Z,27.80
2018-03-18T02:07:46.276Z,31.00
2018-03-18T02:10:22.114Z,25.00
2018-03-18T02:12:49.580Z,27.53
2018-03-18T02:15:26.099Z,27.43
2018-03-18T02:17:53.183Z,31.63
2018-03-18T02:20:28.624Z,24.40
2018-03-18T02:23:04.159Z,24.25
2018-03-18T02:25:39.840Z,25.80
2018-03-18T02:28:07.443Z,33.77
2018-03-18T02:30:40.023Z,28.10
2018-03-18T02:33:17.640Z,36.20
2018-03-18T02:35:46.107Z,32.13
2018-03-18T02:38:25.919Z,23.60
2018-03-18T02:40:59.242Z,26.85
2018-03-18T02:43:31.680Z,28.25
2018-03-18T02:46:06.215Z,28.10
2018-03-18T02:48:38.427Z,25.83
2018-03-18T02:51:31.731Z,26.37
2018-03-18T02:54:09.536Z,31.73
2018-03-18T02:57:05.041Z,27.57
2018-03-18T02:59:36.605Z,33.20
2018-03-18T03:02:07.892Z,28.10
2018-03-18T03:04:45.967Z,28.15
2018-03-18T03:07:19.307Z,30.40
2018-03-18T03:10:00.978Z,30.85
2018-03-18T03:12:44.691Z,30.97
2018-03-18T03:15:24.274Z,29.97
2018-03-18T03:17:51.634Z,32.10
2018-03-18T03:20:26.198Z,32.17
2018-03-18T03:23:05.286Z,29.63
2018-03-18T03:25:40.199Z,30.73
2018-03-18T03:28:07.863Z,27.52
2018-03-18T03:30:38.086Z,29.90
2018-03-18T03:33:05.696Z,21.90
2018-03-18T03:35:39.267Z,23.42
2018-03-18T03:38:25.654Z,31.87
2018-03-18T03:41:03.246Z,31.10
2018-03-18T03:43:34.276Z,28.50
2018-03-18T03:46:09.379Z,27.52
2018-03-18T03:48:45.053Z,27.50
2018-03-18T03:51:20.151Z,31.60
2018-03-18T03:53:49.488Z,23.00
2018-03-18T03:56:37.186Z,32.03
2018-03-18T03:59:40.808Z,30.50
2018-03-18T04:02:08.282Z,27.48
2018-03-18T04:04:40.870Z,28.50
2018-03-18T04:07:13.038Z,24.70
2018-03-18T04:09:46.527Z,27.40
2018-03-18T04:12:16.720Z,23.87
2018-03-18T04:15:07.224Z,27.20
2018-03-18T04:17:37.911Z,24.80
2018-03-18T04:20:12.384Z,27.10
2018-03-18T04:22:39.823Z,27.45
2018-03-18T04:25:17.567Z,25.70
2018-03-18T04:27:44.995Z,24.23
2018-03-18T04:30:22.851Z,23.80
2018-03-18T04:32:55.394Z,25.40
2018-03-18T04:35:27.880Z,34.08
2018-03-18T04:38:00.443Z,27.67
2018-03-18T04:40:30.294Z,28.63
2018-03-18T04:43:04.902Z,25.42
2018-03-18T04:45:40.515Z,26.00
2018-03-18T04:48:07.791Z,29.23
2018-03-18T04:51:02.947Z,27.48
2018-03-18T04:53:31.232Z,27.60
2018-03-18T04:56:00.466Z,22.23
2018-03-18T04:58:35.019Z,34.77
2018-03-18T05:01:04.227Z,29.85
2018-03-18T05:03:33.538Z,16.40
2018-03-18T05:06:04.639Z,30.17
2018-03-18T05:08:41.495Z,25.50
2018-03-18T05:11:14.239Z,26.05
2018-03-18T05:13:42.509Z,24.37
2018-03-18T05:16:09.921Z,29.07
2018-03-18T05:18:43.559Z,24.30
2018-03-18T05:21:11.931Z,22.40
2018-03-18T05:23:49.236Z,24.50
2018-03-18T05:26:17.022Z,19.48
2018-03-18T05:28:51.482Z,21.37
2018-03-18T05:31:21.647Z,24.13
2018-03-18T05:33:55.539Z,18.83
2018-03-18T05:36:27.947Z,29.33
2018-03-18T05:38:57.654Z,22.80
2018-03-18T05:41:33.130Z,31.12
2018-03-18T05:44:03.708Z,25.00
2018-03-18T05:46:35.070Z,24.48
2018-03-18T05:49:02.295Z,24.37
2018-03-18T05:51:34.613Z,21.00
2018-03-18T05:54:02.168Z,26.00
2018-03-18T05:56:29.187Z,27.53
2018-03-18T05:58:56.614Z,21.30
2018-03-18T06:01:25.998Z,22.23
2018-03-18T06:03:59.443Z,26.87
2018-03-18T06:06:33.023Z,27.33
2018-03-18T06:09:02.747Z,20.30
2018-03-18T06:11:31.022Z,31.25
2018-03-18T06:13:59.995Z,24.20
2018-03-18T06:16:36.075Z,23.20
2018-03-18T06:19:09.659Z,20.55
2018-03-18T06:21:37.170Z,26.25
2018-03-18T06:24:11.656Z,25.08
2018-03-18T06:26:43.588Z,23.00
2018-03-18T06:29:17.823Z,19.50
2018-03-18T06:31:56.287Z,21.17
2018-03-18T06:34:32.826Z,20.75
2018-03-18T06:37:02.015Z,23.58
2018-03-18T06:39:30.232Z,22.08
2018-03-18T06:42:05.502Z,24.77
2018-03-18T06:44:37.912Z,17.23
2018-03-18T06:47:06.120Z,20.23
2018-03-18T06:49:34.275Z,20.37
2018-03-18T06:52:26.379Z,25.33
2018-03-18T06:55:03.888Z,19.77
2018-03-18T06:57:39.643Z,20.83
2018-03-18T07:00:09.431Z,21.57
2018-03-18T07:02:42.896Z,19.30
2018-03-18T07:05:36.327Z,18.37
2018-03-18T07:08:09.144Z,21.23
2018-03-18T07:10:36.640Z,23.60
2018-03-18T07:13:05.028Z,19.50
2018-03-18T07:15:35.911Z,16.37
2018-03-18T07:18:16.563Z,20.33
2018-03-18T07:21:08.231Z,21.23
2018-03-18T07:23:37.640Z,17.17
2018-03-18T07:26:07.037Z,19.50
2018-03-18T07:28:37.230Z,16.90
2018-03-18T07:31:05.243Z,17.80
2018-03-18T07:33:35.614Z,14.70
2018-03-18T07:36:18.934Z,15.20
2018-03-18T07:38:51.615Z,17.67
2018-03-18T07:41:19.512Z,15.70
2018-03-18T07:43:52.855Z,13.70
2018-03-18T07:46:29.516Z,18.17
2018-03-18T07:49:04.136Z,16.17
2018-03-18T07:51:36.646Z,18.60
2018-03-18T07:54:13.931Z,13.40
2018-03-18T07:56:46.383Z,16.20
2018-03-18T07:59:30.337Z,16.47
2018-03-18T08:02:00.736Z,10.20
2018-03-18T08:04:29.900Z,16.23
2018-03-18T08:07:01.339Z,19.97
2018-03-18T08:09:31.476Z,17.03
2018-03-18T08:12:03.940Z,15.00
2018-03-18T08:14:36.279Z,16.47
2018-03-18T08:17:11.481Z,17.80
2018-03-18T08:19:43.911Z,15.97
2018-03-18T08:22:11.686Z,13.30
2018-03-18T08:24:44.180Z,19.63
2018-03-18T08:27:22.635Z,15.73
2018-03-18T08:29:53.008Z,14.20
2018-03-18T08:32:45.164Z,16.37
2018-03-18T08:35:23.918Z,19.30
2018-03-18T08:37:56.447Z,18.60
2018-03-18T08:40:27.870Z,18.00
2018-03-18T08:42:58.193Z,15.30
2018-03-18T08:45:27.930Z,13.40
2018-03-18T08:47:55.328Z,19.03
2018-03-18T08:50:28.675Z,19.70
2018-03-18T08:52:58.941Z,16.03
2018-03-18T08:55:34.471Z,18.17
2018-03-18T08:58:07.046Z,17.97
2018-03-18T09:00:34.691Z,14.80
2018-03-18T09:03:05.924Z,16.90
2018-03-18T09:05:38.481Z,17.80
2018-03-18T09:08:10.953Z,14.87
2018-03-18T09:10:44.799Z,14.07
2018-03-18T09:13:24.795Z,16.20
2018-03-18T09:16:01.752Z,16.55
2018-03-18T09:18:35.056Z,14.98
2018-03-18T09:21:07.024Z,15.87
2018-03-18T09:23:39.043Z,15.82
2018-03-18T09:26:06.454Z,15.33
2018-03-18T09:28:44.059Z,15.67
2018-03-18T09:31:11.515Z,19.67
2018-03-18T09:33:44.074Z,19.20
2018-03-18T09:36:22.047Z,19.03
2018-03-18T09:38:52.619Z,13.80
2018-03-18T09:41:19.991Z,10.90
2018-03-18T09:43:48.176Z,15.87
2018-03-18T09:46:17.145Z,13.90
2018-03-18T09:49:04.236Z,14.50
2018-03-18T09:51:31.364Z,16.63
2018-03-18T09:54:03.612Z,13.03
2018-03-18T09:56:31.939Z,14.23
2018-03-18T09:59:11.488Z,16.03
2018-03-18T10:01:47.904Z,18.37
2018-03-18T10:04:18.256Z,19.50
2018-03-18T10:06:50.644Z,15.37
2018-03-18T10:09:20.558Z,17.87
2018-03-18T10:11:53.107Z,15.20
2018-03-18T10:14:19.851Z,14.10
2018-03-18T10:16:47.272Z,13.53
2018-03-18T10:19:17.562Z,17.33
2018-03-18T10:21:54.400Z,15.93
2018-03-18T10:24:38.611Z,14.37
2018-03-18T10:27:15.444Z,16.90
2018-03-18T10:29:55.183Z,16.10
2018-03-18T10:32:29.964Z,14.20
2018-03-18T10:35:01.410Z,14.60
2018-03-18T10:37:34.452Z,20.33
2018-03-18T10:40:10.039Z,12.23
2018-03-18T10:42:39.247Z,16.90
2018-03-18T10:45:10.256Z,11.90
2018-03-18T10:47:42.002Z,14.60
2018-03-18T10:50:10.308Z,16.27
2018-03-18T10:52:41.037Z,13.87
2018-03-18T10:55:10.261Z,18.57
2018-03-18T10:57:45.150Z,16.53
2018-03-18T11:00:18.687Z,14.90
2018-03-18T11:02:53.246Z,17.90
2018-03-18T11:05:23.062Z,14.37
2018-03-18T11:07:56.496Z,15.10
2018-03-18T11:10:27.231Z,13.13
2018-03-18T11:12:54.860Z,12.60
2018-03-18T11:15:26.212Z,15.43
2018-03-18T11:17:56.719Z,13.47
2018-03-18T11:20:30.341Z,16.23
2018-03-18T11:22:58.091Z,15.50
2018-03-18T11:25:40.790Z,14.10
2018-03-18T11:28:16.421Z,16.00
2018-03-18T11:31:10.114Z,16.20
2018-03-18T11:33:40.444Z,17.07
2018-03-18T11:36:11.348Z,14.50
2018-03-18T11:38:50.072Z,15.73
2018-03-18T11:41:23.282Z,13.23
2018-03-18T11:43:58.223Z,17.63
2018-03-18T11:46:35.704Z,13.90
2018-03-18T11:49:07.463Z,16.50
2018-03-18T11:51:38.146Z,13.13
2018-03-18T11:54:07.358Z,17.20
2018-03-18T11:56:36.635Z,16.80
2018-03-18T11:59:13.797Z,14.20
2018-03-18T12:01:57.916Z,15.83
2018-03-18T12:04:26.663Z,15.50
2018-03-18T12:06:53.963Z,13.47
2018-03-18T12:09:26.416Z,15.13
2018-03-18T12:12:05.278Z,14.10
2018-03-18T12:14:46.090Z,13.10
2018-03-18T12:17:13.802Z,16.57
2018-03-18T12:19:43.196Z,15.23
2018-03-18T12:22:37.029Z,14.90
2018-03-18T12:25:04.483Z,14.20
2018-03-18T12:27:41.691Z,14.60
2018-03-18T12:30:13.812Z,14.60
2018-03-18T12:32:45.976Z,14.00
2018-03-18T12:35:29.132Z,15.13
2018-03-18T12:38:01.635Z,14.20
2018-03-18T12:40:50.535Z,14.27
2018-03-18T12:43:28.961Z,13.77
2018-03-18T12:46:06.731Z,15.50
2018-03-18T12:48:38.172Z,18.00
2018-03-18T12:51:05.476Z,12.87
2018-03-18T12:53:43.330Z,11.97
2018-03-18T12:56:11.523Z,17.83
2018-03-18T12:58:38.924Z,12.97
2018-03-18T13:01:05.558Z,14.17
2018-03-18T13:03:38.154Z,14.13
2018-03-18T13:06:08.448Z,13.60
2018-03-18T13:08:38.027Z,12.80
2018-03-18T13:11:06.399Z,15.73
2018-03-18T13:13:36.700Z,17.30
2018-03-18T13:16:08.011Z,13.70
2018-03-18T13:18:41.522Z,17.40
2018-03-18T13:21:09.208Z,17.13
2018-03-18T13:23:36.467Z,14.60
2018-03-18T13:26:07.876Z,14.60
2018-03-18T13:28:40.116Z,18.13
2018-03-18T13:31:13.930Z,15.80
2018-03-18T13:33:41.303Z,15.17
2018-03-18T13:36:08.886Z,13.87
2018-03-18T13:38:42.193Z,14.17
2018-03-18T13:41:16.739Z,14.17
2018-03-18T13:43:49.228Z,16.47
2018-03-18T13:46:36.067Z,19.23
2018-03-18T13:49:04.363Z,15.57
2018-03-18T13:51:41.455Z,11.20
2018-03-18T13:54:14.037Z,12.97
2018-03-18T13:56:46.451Z,16.50
2018-03-18T13:59:19.627Z,14.10
2018-03-18T14:01:47.058Z,13.77
2018-03-18T14:04:19.599Z,13.23
2018-03-18T14:06:46.914Z,15.57
2018-03-18T14:09:17.640Z,16.07
2018-03-18T14:11:49.666Z,15.30
2018-03-18T14:14:19.899Z,16.37
2018-03-18T14:16:47.000Z,16.23
2018-03-18T14:19:35.364Z,17.53
2018-03-18T14:22:07.996Z,15.00
2018-03-18T14:24:41.732Z,12.80
2018-03-18T14:27:12.883Z,17.37
2018-03-18T14:29:41.281Z,15.33
2018-03-18T14:32:08.736Z,12.70
2018-03-18T14:34:50.069Z,13.60
2018-03-18T14:37:23.181Z,13.53
2018-03-18T14:39:55.712Z,16.57
2018-03-18T14:42:27.780Z,13.03
2018-03-18T14:44:57.844Z,12.57
2018-03-18T14:47:31.727Z,14.50
2018-03-18T14:50:00.432Z,16.20
2018-03-18T14:52:29.814Z,14.33
2018-03-18T14:55:07.183Z,17.70
2018-03-18T14:57:40.748Z,12.67
2018-03-18T15:00:08.358Z,13.37
2018-03-18T15:02:35.696Z,14.80
2018-03-18T15:05:10.623Z,14.33
2018-03-18T15:07:39.613Z,14.33
2018-03-18T15:10:09.990Z,15.90
2018-03-18T15:12:38.041Z,16.17
2018-03-18T15:15:49.956Z,13.47
2018-03-18T15:18:27.788Z,15.73
2018-03-18T15:20:56.485Z,17.10
2018-03-18T15:23:28.740Z,12.63
2018-03-18T15:26:06.485Z,13.40
2018-03-18T15:28:42.775Z,12.47
2018-03-18T15:31:14.672Z,13.30
2018-03-18T15:33:42.264Z,15.17
2018-03-18T15:36:19.321Z,15.17
2018-03-18T15:38:52.264Z,11.27
2018-03-18T15:41:24.862Z,13.63
2018-03-18T15:43:57.231Z,16.00
2018-03-18T15:46:30.804Z,17.07
2018-03-18T15:48:58.216Z,14.03
2018-03-18T15:51:25.692Z,12.93
2018-03-18T15:53:57.123Z,16.73
2018-03-18T15:56:24.828Z,16.13
2018-03-18T15:58:51.384Z,14.37
2018-03-18T16:01:20.886Z,14.33
2018-03-18T16:03:48.860Z,10.87
2018-03-18T16:06:17.887Z,14.33
2018-03-18T16:08:49.575Z,12.80
2018-03-18T16:11:19.887Z,13.20
2018-03-18T16:13:47.125Z,10.90
2018-03-18T16:16:17.261Z,17.00
2018-03-18T16:18:50.536Z,15.23
2018-03-18T16:21:21.672Z,15.13
2018-03-18T16:23:52.387Z,13.60
2018-03-18T16:26:19.690Z,16.10
2018-03-18T16:29:08.859Z,13.30
2018-03-18T16:31:48.571Z,15.77
2018-03-18T16:34:21.496Z,14.90
2018-03-18T16:36:51.443Z,10.17
2018-03-18T16:39:21.375Z,13.93
2018-03-18T16:41:49.895Z,16.07
2018-03-18T16:44:18.431Z,14.77
2018-03-18T16:46:53.017Z,9.17
2018-03-18T16:49:20.958Z,10.70
2018-03-18T16:51:54.123Z,11.57
2018-03-18T16:54:26.022Z,12.03
2018-03-18T16:57:00.566Z,11.57
2018-03-18T16:59:37.350Z,13.30
2018-03-18T17:02:10.802Z,10.87
2018-03-18T17:04:44.052Z,11.40
2018-03-18T17:07:18.011Z,13.57
2018-03-18T17:09:45.619Z,12.73
2018-03-18T17:12:29.307Z,12.40
2018-03-18T17:14:59.596Z,14.13
2018-03-18T17:17:27.915Z,12.90
2018-03-18T17:20:26.267Z,11.20
2018-03-18T17:22:53.682Z,7.77
2018-03-18T17:25:26.627Z,9.70
2018-03-18T17:28:01.083Z,9.87
2018-03-18T17:30:29.564Z,9.37
2018-03-18T17:33:08.242Z,16.30
2018-03-18T17:35:37.780Z,11.50
2018-03-18T17:38:10.352Z,10.43
2018-03-18T17:40:37.936Z,11.43
2018-03-18T17:43:08.608Z,13.27
2018-03-18T17:45:54.220Z,14.80
2018-03-18T17:48:38.715Z,12.77
2018-03-18T17:51:18.688Z,13.50
2018-03-18T17:54:01.498Z,11.90
2018-03-18T17:56:36.819Z,11.97
2018-03-18T17:59:06.199Z,13.50
2018-03-18T18:01:32.784Z,10.70
2018-03-18T18:04:01.329Z,13.37
2018-03-18T18:06:47.607Z,12.87
2018-03-18T18:09:16.555Z,15.70
2018-03-18T18:11:44.210Z,14.40
2018-03-18T18:14:12.789Z,17.13
2018-03-18T18:16:45.980Z,14.53
2018-03-18T18:19:13.430Z,13.90
2018-03-18T18:21:41.160Z,12.07
2018-03-18T18:24:11.160Z,12.57
2018-03-18T18:26:51.711Z,14.80
2018-03-18T18:29:21.496Z,16.37
2018-03-18T18:31:50.861Z,11.23
2018-03-18T18:34:18.206Z,13.37
2018-03-18T18:36:44.845Z,13.97
2018-03-18T18:39:13.115Z,14.80
2018-03-18T18:41:40.628Z,12.83
2018-03-18T18:44:10.350Z,14.77
2018-03-18T18:46:42.757Z,17.03
2018-03-18T18:49:15.571Z,16.77
2018-03-18T18:51:59.925Z,13.97
2018-03-18T18:54:32.696Z,14.13
2018-03-18T18:57:01.259Z,17.83
2018-03-18T18:59:38.747Z,13.40
2018-03-18T19:02:07.342Z,16.30
2018-03-18T19:04:41.892Z,15.57
2018-03-18T19:07:23.661Z,17.60
2018-03-18T19:09:56.351Z,14.30
2018-03-18T19:12:42.920Z,14.13
2018-03-18T19:15:12.094Z,17.30
2018-03-18T19:17:39.312Z,13.97
2018-03-18T19:20:06.058Z,11.37
2018-03-18T19:22:54.294Z,15.33
2018-03-18T19:25:20.909Z,14.13
2018-03-18T19:27:49.595Z,15.67
2018-03-18T19:30:18.240Z,16.73
2018-03-18T19:32:52.891Z,15.03
2018-03-18T19:35:21.508Z,17.23
2018-03-18T19:37:48.849Z,12.20
2018-03-18T19:40:21.499Z,11.33
2018-03-18T19:42:55.793Z,10.00
2018-03-18T19:45:24.292Z,13.60
2018-03-18T19:47:50.990Z,11.43
2018-03-18T19:50:21.417Z,13.40
2018-03-18T19:52:57.269Z,16.27
2018-03-18T19:55:25.636Z,12.77
2018-03-18T19:58:05.382Z,13.00
2018-03-18T20:00:39.182Z,13.20
2018-03-18T20:03:19.194Z,10.30
2018-03-18T20:05:51.790Z,17.03
2018-03-18T20:08:19.352Z,15.20
2018-03-18T20:10:46.693Z,12.30
2018-03-18T20:13:14.081Z,15.60
2018-03-18T20:15:41.399Z,12.50
2018-03-18T20:18:08.077Z,9.40
2018-03-18T20:20:35.496Z,13.10
2018-03-18T20:23:02.797Z,14.97
2018-03-18T20:25:33.474Z,11.93
2018-03-18T20:28:01.024Z,11.07
2018-03-18T20:30:27.689Z,13.00
2018-03-18T20:33:16.051Z,15.20
2018-03-18T20:35:51.742Z,12.00
2018-03-18T20:38:21.112Z,12.07
2018-03-18T20:40:48.443Z,12.50
2018-03-18T20:43:17.051Z,13.80
2018-03-18T20:45:45.615Z,13.20
2018-03-18T20:48:13.323Z,14.20
2018-03-18T20:50:46.047Z,13.50
2018-03-18T20:53:13.801Z,12.10
2018-03-18T20:55:46.725Z,11.30
2018-03-18T20:58:21.524Z,11.23
2018-03-18T21:00:51.994Z,10.60
2018-03-18T21:03:24.444Z,12.53
2018-03-18T21:05:54.772Z,12.80
2018-03-18T21:08:22.400Z,11.57
2018-03-18T21:10:52.710Z,13.50
2018-03-18T21:13:23.611Z,14.80
2018-03-18T21:16:18.207Z,12.27
2018-03-18T21:18:47.216Z,13.00
2018-03-18T21:21:19.825Z,15.00
2018-03-18T21:23:47.067Z,16.93
2018-03-18T21:26:17.148Z,16.10
2018-03-18T21:28:53.451Z,15.23
2018-03-18T21:31:26.547Z,15.30
2018-03-18T21:33:59.039Z,11.10
2018-03-18T21:36:26.396Z,11.10
2018-03-18T21:38:59.887Z,12.63
2018-03-18T21:41:39.127Z,15.73
2018-03-18T21:44:11.764Z,10.80
2018-03-18T21:46:38.469Z,14.37
2018-03-18T21:49:06.755Z,14.67
2018-03-18T21:51:34.699Z,13.10
2018-03-18T21:54:07.650Z,15.07
2018-03-18T21:56:43.272Z,15.50
2018-03-18T21:59:14.647Z,13.80
2018-03-18T22:01:46.277Z,14.03
2018-03-18T22:04:13.616Z,9.97
2018-03-18T22:06:44.639Z,13.00
2018-03-18T22:09:12.042Z,14.80
2018-03-18T22:11:41.315Z,14.60
2018-03-18T22:14:15.692Z,15.40
2018-03-18T22:16:42.299Z,16.87
2018-03-18T22:19:16.362Z,12.87
2018-03-18T22:21:43.924Z,15.67
2018-03-18T22:24:10.639Z,10.70
2018-03-18T22:26:38.942Z,12.73
2018-03-18T22:29:07.546Z,12.63
2018-03-18T22:31:37.039Z,9.93
2018-03-18T22:34:05.375Z,15.30
2018-03-18T22:36:32.774Z,12.80
2018-03-18T22:38:59.859Z,14.23
2018-03-18T22:41:27.175Z,11.53
2018-03-18T22:43:58.467Z,13.20
2018-03-18T22:46:25.067Z,12.33
2018-03-18T22:48:53.357Z,13.63
2018-03-18T22:51:25.851Z,16.10
2018-03-18T22:53:56.354Z,15.77
2018-03-18T22:56:33.291Z,15.43
2018-03-18T22:59:00.538Z,14.17
2018-03-18T23:01:33.768Z,12.67
2018-03-18T23:04:01.212Z,14.10
2018-03-18T23:06:28.289Z,13.77
2018-03-18T23:08:55.541Z,15.50
2018-03-18T23:11:32.324Z,12.73
2018-03-18T23:14:04.943Z,10.20
2018-03-18T23:16:32.439Z,14.63
2018-03-18T23:19:04.152Z,12.20
2018-03-18T23:21:31.647Z,11.87
2018-03-18T23:24:01.870Z,14.27
2018-03-18T23:26:28.484Z,14.50
2018-03-18T23:28:55.367Z,14.70
2018-03-18T23:31:23.618Z,16.03
2018-03-18T23:33:58.735Z,14.40
2018-03-18T23:36:29.843Z,13.90
2018-03-18T23:39:12.099Z,14.03
2018-03-18T23:41:46.310Z,12.67
2018-03-18T23:44:13.892Z,14.00
2018-03-18T23:46:41.503Z,13.67
2018-03-18T23:49:12.884Z,11.60
2018-03-18T23:51:39.667Z,18.53
2018-03-18T23:54:09.591Z,13.83
2018-03-18T23:56:39.726Z,16.57
2018-03-18T23:59:08.835Z,13.70
